Gran Bretagna — IBFB — position and weather

sailwx.info

Track history (hours):
 
Tides and Currents Weather Stations Pressure Air Temp Water Temp Dewpoint Dewpoint Depression Visibility Wind Speed Wind Dir Waves Ship Positions

Gran Bretagna

Last reported at 2017-Oct-17 09:50 UTC. Time now 2017-Oct-18 02:23 UTC.
Position N 37°55' E 024°36'.

Length 184 m; draft 8.5 m.

Type: Ship (hazmat cat D). MMSI: 247290000.

Date/timePositionNaut miles runAvg speedWind from/ knotsBaromVisibWave heightAir tempDewpointWater temp
2017-Oct-17 09:50N 37°55' E 024°36'515.0
2017-Oct-17 09:30N 37°52' E 024°31'1216.2
2017-Oct-17 08:46N 37°44' E 024°20'1115.4
2017-Oct-17 08:03N 37°37' E 024°09'615.9
2017-Oct-17 07:41N 37°37' E 024°02'316.5
2017-Oct-17 07:29N 37°37' E 023°58'916.5
2017-Oct-17 06:57N 37°37' E 023°47'716.3
2017-Oct-17 06:31N 37°43' E 023°41'816.7
2017-Oct-17 06:01N 37°50' E 023°36'613.0
2017-Oct-17 05:30N 37°57' E 023°36'1 1.6
2017-Oct-17 04:59N 37°58' E 023°36'0 0.0
2017-Oct-17 04:29N 37°58' E 023°36'0 0.0
2017-Oct-17 03:59N 37°58' E 023°36'0 0.0
2017-Oct-17 03:14N 37°58' E 023°36'0 0.0
2017-Oct-17 02:59N 37°58' E 023°36'0 0.0
2017-Oct-17 02:29N 37°58' E 023°36'0 0.0
2017-Oct-17 01:59N 37°58' E 023°36'0 0.0
2017-Oct-17 01:29N 37°58' E 023°36'0 0.0
2017-Oct-17 00:59N 37°58' E 023°36'0 0.0
2017-Oct-17 00:29N 37°58' E 023°36'0 0.0
2017-Oct-16 23:59N 37°58' E 023°36'0 0.0
2017-Oct-16 23:29N 37°58' E 023°36'0 0.0
2017-Oct-16 22:59N 37°58' E 023°36'0 0.0
2017-Oct-16 22:29N 37°58' E 023°36'0 0.0
2017-Oct-16 21:59N 37°58' E 023°36'0 0.0
2017-Oct-16 21:29N 37°58' E 023°36'0 0.0
2017-Oct-16 20:59N 37°58' E 023°36'0 0.0
2017-Oct-16 20:29N 37°58' E 023°36'0 0.0
2017-Oct-16 19:56N 37°58' E 023°36'0 0.0
2017-Oct-16 19:26N 37°58' E 023°36'0 0.0
2017-Oct-16 18:59N 37°58' E 023°36'1 2.1
2017-Oct-16 18:30N 37°57' E 023°36'2 4.3
2017-Oct-16 18:00N 37°55' E 023°36'3 6.4
2017-Oct-16 17:30N 37°52' E 023°38'612.7
2017-Oct-16 17:00N 37°46' E 023°42'815.6
2017-Oct-16 16:30N 37°39' E 023°46'815.2
2017-Oct-16 16:00N 37°32' E 023°49'815.4
2017-Oct-16 15:30N 37°25' E 023°54'20713.0
2017-Oct-15 23:34N 36°59' E 019°36'118.1
2017-Oct-15 23:29N 36°59' E 019°34'918.2
2017-Oct-15 23:00N 37°01' E 019°24'918.4
2017-Oct-15 22:30N 37°03' E 019°13'918.4
2017-Oct-15 22:01N 37°06' E 019°02'918.4
2017-Oct-15 21:30N 37°09' E 018°50'3218.2
2017-Oct-15 19:43N 37°18' E 018°11'10317.9
2017-Oct-15 13:58N 37°48' E 016°07'818.3
2017-Oct-15 13:30N 37°50' E 015°57'918.0
2017-Oct-15 13:01N 37°52' E 015°46'816.8
2017-Oct-15 12:30N 37°56' E 015°36'917.9
2017-Oct-15 12:00N 38°05' E 015°34'917.6
2017-Oct-15 11:31N 38°13' E 015°36'714.2
2017-Oct-15 11:00N 38°19' E 015°41'5 9.9
2017-Oct-15 10:30N 38°23' E 015°46'612.4
2017-Oct-15 10:00N 38°27' E 015°52'3 5.6
2017-Oct-15 09:30N 38°28' E 015°55'0 0.1
2017-Oct-15 04:06N 38°28' E 015°55'0 0.3
2017-Oct-15 04:00N 38°28' E 015°55'1 2.7
2017-Oct-15 03:30N 38°27' E 015°54'2 4.2
2017-Oct-15 03:00N 38°27' E 015°51'2 4.5
2017-Oct-15 02:30N 38°29' E 015°50'0 0.9
2017-Oct-15 02:01N 38°29' E 015°50'0 0.9
2017-Oct-15 01:30N 38°30' E 015°50'3 5.8
2017-Oct-15 01:01N 38°32' E 015°49'815.4
2017-Oct-15 00:30N 38°39' E 015°45'815.8
2017-Oct-15 00:00N 38°46' E 015°40'815.8
2017-Oct-14 23:30N 38°53' E 015°36'816.1
2017-Oct-14 23:00N 39°00' E 015°30'816.3
2017-Oct-14 22:30N 39°08' E 015°25'816.2
2017-Oct-14 21:59N 39°15' E 015°20'816.3
2017-Oct-14 21:30N 39°22' E 015°15'816.1
2017-Oct-14 21:00N 39°29' E 015°11'2016.3
2017-Oct-14 19:47N 39°47' E 014°60'616.4
2017-Oct-14 19:24N 39°53' E 014°56'35310.1
2017-Oct-13 08:34N 38°50' E 007°27'318.6
2017-Oct-13 08:24N 38°50' E 007°23'818.6
2017-Oct-13 07:57N 38°51' E 007°12'4718.3
2017-Oct-13 05:24N 38°53' E 006°12'718.1
2017-Oct-13 05:00N 38°53' E 006°03'1017.9
2017-Oct-13 04:26N 38°54' E 005°50'818.1
2017-Oct-13 04:00N 38°55' E 005°40'918.5
2017-Oct-13 03:30N 38°56' E 005°28'918.5
2017-Oct-13 02:59N 38°57' E 005°16'3718.6
2017-Oct-13 01:00N 38°58' E 004°28'918.5
2017-Oct-13 00:31N 38°59' E 004°17'1118.6
2017-Oct-12 23:56N 38°59' E 004°03'818.6
2017-Oct-12 23:30N 38°60' E 003°53'918.8
2017-Oct-12 23:00N 39°00' E 003°41'918.8
2017-Oct-12 22:30N 39°01' E 003°29'1018.8
2017-Oct-12 21:58N 39°01' E 003°16'918.8
2017-Oct-12 21:30N 39°02' E 003°04'918.6
2017-Oct-12 21:01N 39°03' E 002°53'918.4
2017-Oct-12 20:30N 39°04' E 002°41'918.3
2017-Oct-12 20:00N 39°06' E 002°29'4018.9
2017-Oct-12 17:52N 39°13' E 001°38'719.0
2017-Oct-12 17:30N 39°14' E 001°29'1819.0
2017-Oct-12 16:33N 39°17' E 001°06'118.7
2017-Oct-12 16:30N 39°17' E 001°05'42 2.6
2017-Oct-12 00:19N 38°48' E 000°27'616.0
2017-Oct-11 23:57N 38°43' E 000°31'1015.4
2017-Oct-11 23:17N 38°36' E 000°40'415.0
2017-Oct-11 23:00N 38°31' E 000°40'816.7
2017-Oct-11 22:30N 38°25' E 000°33'1616.4
2017-Oct-11 21:33N 38°13' E 000°20'116.1
2017-Oct-11 21:30N 38°13' E 000°19'816.0
2017-Oct-11 21:00N 38°07' E 000°12'816.0
2017-Oct-11 20:30N 38°01' E 000°05'815.8
2017-Oct-11 20:01N 37°56' W 000°02'815.7
2017-Oct-11 19:30N 37°50' W 000°09'815.8
2017-Oct-11 19:00N 37°44' W 000°16'815.6
2017-Oct-11 18:30N 37°39' W 000°23'815.7
2017-Oct-11 18:00N 37°34' W 000°30'816.1
2017-Oct-11 17:30N 37°28' W 000°38'917.2
2017-Oct-11 17:00N 37°23' W 000°46'30416.4
2017-Oct-10 22:30N 36°02' W 006°52'815.9
2017-Oct-10 22:00N 36°04' W 007°01'816.5
2017-Oct-10 21:30N 36°06' W 007°11'816.7
2017-Oct-10 21:00N 36°08' W 007°21'916.8
2017-Oct-10 20:30N 36°10' W 007°31'816.7
2017-Oct-10 20:00N 36°12' W 007°41'817.2
2017-Oct-10 19:30N 36°15' W 007°51'917.0
2017-Oct-10 19:00N 36°17' W 008°02'917.3
2017-Oct-10 18:31N 36°19' W 008°12'917.2
2017-Oct-10 18:00N 36°21' W 008°22'917.2
2017-Oct-10 17:30N 36°24' W 008°33'917.4
2017-Oct-10 17:00N 36°26' W 008°43'917.3
2017-Oct-10 16:30N 36°28' W 008°53'917.9
2017-Oct-10 16:01N 36°31' W 009°04'917.7
2017-Oct-10 15:31N 36°33' W 009°15'917.2
2017-Oct-10 15:00N 36°39' W 009°23'1717.2
2017-Oct-10 14:00N 36°54' W 009°35'918.2
2017-Oct-10 13:30N 37°02' W 009°37'918.1
2017-Oct-10 13:01N 37°11' W 009°40'918.5
2017-Oct-10 12:30N 37°20' W 009°43'918.5
2017-Oct-10 12:01N 37°29' W 009°45'918.5
2017-Oct-10 11:31N 37°38' W 009°46'918.0
2017-Oct-10 11:01N 37°47' W 009°48'918.1
2017-Oct-10 10:31N 37°56' W 009°51'918.5
2017-Oct-10 10:00N 38°05' W 009°53'918.2
2017-Oct-10 09:30N 38°14' W 009°56'917.9
2017-Oct-10 09:00N 38°22' W 009°59'918.2
2017-Oct-10 08:31N 38°31' W 010°02'918.3
2017-Oct-10 08:00N 38°40' W 010°05'917.9
2017-Oct-10 07:30N 38°49' W 010°05'918.7
2017-Oct-10 07:01N 38°58' W 010°05'918.2
2017-Oct-10 06:30N 39°08' W 010°05'918.5
2017-Oct-10 06:01N 39°17' W 010°05'918.4
2017-Oct-10 05:30N 39°26' W 010°05'918.0
2017-Oct-10 05:01N 39°35' W 010°06'918.4
2017-Oct-10 04:30N 39°44' W 010°07'918.3
2017-Oct-10 03:59N 39°54' W 010°07'918.4
2017-Oct-10 03:30N 40°03' W 010°07'918.2
2017-Oct-10 03:01N 40°12' W 010°08'917.9
2017-Oct-10 02:31N 40°21' W 010°08'918.3
2017-Oct-10 02:01N 40°30' W 010°08'1018.9
2017-Oct-10 01:30N 40°39' W 010°07'918.7
2017-Oct-10 01:00N 40°48' W 010°07'918.5
2017-Oct-10 00:30N 40°58' W 010°07'1019.0
2017-Oct-09 23:59N 41°08' W 010°07'1518.7
2017-Oct-09 23:11N 41°23' W 010°07'518.8
2017-Oct-09 22:55N 41°27' W 010°07'819.1
2017-Oct-09 22:30N 41°36' W 010°08'1218.8
2017-Oct-09 21:51N 41°48' W 010°08'36518.0
2017-Oct-09 01:35N 47°27' W 007°01'10018.9
2017-Oct-08 20:18N 48°54' W 005°47'1017.2
2017-Oct-08 19:42N 49°00' W 005°35'5216.2
2017-Oct-08 16:32N 49°26' W 004°26'116.9
2017-Oct-08 16:29N 49°26' W 004°25'1017.3
2017-Oct-08 15:56N 49°31' W 004°12'818.1
2017-Oct-08 15:29N 49°35' W 004°02'918.8
2017-Oct-08 15:01N 49°39' W 003°50'1019.6
2017-Oct-08 14:31N 49°44' W 003°37'1020.0
2017-Oct-08 14:01N 49°49' W 003°23'1020.1
2017-Oct-08 13:31N 49°54' W 003°10'1019.6
2017-Oct-08 13:00N 49°59' W 002°56'1019.0
2017-Oct-08 12:31N 50°01' W 002°42'5515.8
2017-Oct-08 09:02N 50°24' W 001°24'114.9
2017-Oct-08 09:00N 50°25' W 001°23'714.7
2017-Oct-08 08:30N 50°28' W 001°13'714.7
2017-Oct-08 08:00N 50°32' W 001°03'714.9
2017-Oct-08 07:30N 50°39' W 000°58'611.4
2017-Oct-08 07:00N 50°44' W 001°03'917.7
2017-Oct-08 06:30N 50°46' W 001°16'510.2
2017-Oct-08 06:00N 50°51' W 001°20'4 8.4
2017-Oct-08 05:30N 50°54' W 001°25'0 0.3
2017-Oct-08 04:54N 50°54' W 001°25'0 0.0
2017-Oct-08 04:27N 50°54' W 001°25'0 0.0
2017-Oct-08 03:57N 50°54' W 001°25'0 0.0
2017-Oct-08 03:27N 50°54' W 001°25'0 0.0
2017-Oct-08 02:57N 50°54' W 001°25'0 0.0
2017-Oct-08 02:30N 50°54' W 001°25'0 0.0
2017-Oct-08 01:57N 50°54' W 001°25'0 0.0
2017-Oct-08 01:30N 50°54' W 001°25'0 0.0
2017-Oct-08 01:00N 50°54' W 001°25'0 0.0
2017-Oct-08 00:27N 50°54' W 001°25'0 0.0
2017-Oct-07 23:57N 50°54' W 001°25'0 0.0
2017-Oct-07 23:30N 50°54' W 001°25'0 0.0
2017-Oct-07 23:00N 50°54' W 001°25'0 0.0
2017-Oct-07 22:21N 50°54' W 001°25'0 0.0
2017-Oct-07 21:48N 50°54' W 001°25'0 0.0
2017-Oct-07 21:27N 50°54' W 001°25'0 0.0
2017-Oct-07 20:45N 50°54' W 001°25'0 0.0
2017-Oct-07 19:51N 50°54' W 001°25'0 0.0
2017-Oct-07 18:09N 50°54' W 001°25'0 0.0
2017-Oct-07 17:39N 50°54' W 001°25'0 0.0
2017-Oct-07 17:27N 50°54' W 001°25'0 0.0
2017-Oct-07 16:51N 50°54' W 001°25'0 0.0
2017-Oct-07 16:21N 50°54' W 001°25'0 0.0
2017-Oct-07 16:00N 50°54' W 001°25'0 0.0
2017-Oct-07 15:30N 50°54' W 001°25'2 3.2
2017-Oct-07 15:00N 50°53' W 001°24'510.6
2017-Oct-07 14:31N 50°49' W 001°18'612.6
2017-Oct-07 14:00N 50°46' W 001°09'917.5
2017-Oct-07 13:31N 50°41' W 000°58'1 2.1
2017-Oct-07 13:00N 50°41' W 000°56'3 5.5
2017-Oct-07 12:30N 50°39' W 000°53'917.2
2017-Oct-07 12:01N 50°37' W 000°39'816.7
2017-Oct-07 11:31N 50°35' W 000°27'815.7
2017-Oct-07 11:01N 50°33' W 000°15'815.0
2017-Oct-07 10:30N 50°31' W 000°03'714.3
2017-Oct-07 10:01N 50°32' E 000°08'  
Track history (hours):
 
Tides and Currents Weather Stations Pressure Air Temp Water Temp Dewpoint Dewpoint Depression Visibility Wind Speed Wind Dir Waves Ship Positions

Gran Bretagna

Last reported at 2017-Oct-17 09:50 UTC. Time now 2017-Oct-18 02:23 UTC.
Position N 37°55' E 024°36'.

Length 184 m; draft 8.5 m.

Type: Ship (hazmat cat D). MMSI: 247290000.

Date/timePositionNaut miles runAvg speedWind from/ knotsBaromVisibWave heightAir tempDewpointWater temp
2017-Oct-17 09:50N 37°55' E 024°36'515.0
2017-Oct-17 09:30N 37°52' E 024°31'1216.2
2017-Oct-17 08:46N 37°44' E 024°20'1115.4
2017-Oct-17 08:03N 37°37' E 024°09'615.9
2017-Oct-17 07:41N 37°37' E 024°02'316.5
2017-Oct-17 07:29N 37°37' E 023°58'916.5
2017-Oct-17 06:57N 37°37' E 023°47'716.3
2017-Oct-17 06:31N 37°43' E 023°41'816.7
2017-Oct-17 06:01N 37°50' E 023°36'613.0
2017-Oct-17 05:30N 37°57' E 023°36'1 1.6
2017-Oct-17 04:59N 37°58' E 023°36'0 0.0
2017-Oct-17 04:29N 37°58' E 023°36'0 0.0
2017-Oct-17 03:59N 37°58' E 023°36'0 0.0
2017-Oct-17 03:14N 37°58' E 023°36'0 0.0
2017-Oct-17 02:59N 37°58' E 023°36'0 0.0
2017-Oct-17 02:29N 37°58' E 023°36'0 0.0
2017-Oct-17 01:59N 37°58' E 023°36'0 0.0
2017-Oct-17 01:29N 37°58' E 023°36'0 0.0
2017-Oct-17 00:59N 37°58' E 023°36'0 0.0
2017-Oct-17 00:29N 37°58' E 023°36'0 0.0
2017-Oct-16 23:59N 37°58' E 023°36'0 0.0
2017-Oct-16 23:29N 37°58' E 023°36'0 0.0
2017-Oct-16 22:59N 37°58' E 023°36'0 0.0
2017-Oct-16 22:29N 37°58' E 023°36'0 0.0
2017-Oct-16 21:59N 37°58' E 023°36'0 0.0
2017-Oct-16 21:29N 37°58' E 023°36'0 0.0
2017-Oct-16 20:59N 37°58' E 023°36'0 0.0
2017-Oct-16 20:29N 37°58' E 023°36'0 0.0
2017-Oct-16 19:56N 37°58' E 023°36'0 0.0
2017-Oct-16 19:26N 37°58' E 023°36'0 0.0
2017-Oct-16 18:59N 37°58' E 023°36'1 2.1
2017-Oct-16 18:30N 37°57' E 023°36'2 4.3
2017-Oct-16 18:00N 37°55' E 023°36'3 6.4
2017-Oct-16 17:30N 37°52' E 023°38'612.7
2017-Oct-16 17:00N 37°46' E 023°42'815.6
2017-Oct-16 16:30N 37°39' E 023°46'815.2
2017-Oct-16 16:00N 37°32' E 023°49'815.4
2017-Oct-16 15:30N 37°25' E 023°54'20713.0
2017-Oct-15 23:34N 36°59' E 019°36'118.1
2017-Oct-15 23:29N 36°59' E 019°34'918.2
2017-Oct-15 23:00N 37°01' E 019°24'918.4
2017-Oct-15 22:30N 37°03' E 019°13'918.4
2017-Oct-15 22:01N 37°06' E 019°02'918.4
2017-Oct-15 21:30N 37°09' E 018°50'3218.2
2017-Oct-15 19:43N 37°18' E 018°11'10317.9
2017-Oct-15 13:58N 37°48' E 016°07'818.3
2017-Oct-15 13:30N 37°50' E 015°57'918.0
2017-Oct-15 13:01N 37°52' E 015°46'816.8
2017-Oct-15 12:30N 37°56' E 015°36'917.9
2017-Oct-15 12:00N 38°05' E 015°34'917.6
2017-Oct-15 11:31N 38°13' E 015°36'714.2
2017-Oct-15 11:00N 38°19' E 015°41'5 9.9
2017-Oct-15 10:30N 38°23' E 015°46'612.4
2017-Oct-15 10:00N 38°27' E 015°52'3 5.6
2017-Oct-15 09:30N 38°28' E 015°55'0 0.1
2017-Oct-15 04:06N 38°28' E 015°55'0 0.3
2017-Oct-15 04:00N 38°28' E 015°55'1 2.7
2017-Oct-15 03:30N 38°27' E 015°54'2 4.2
2017-Oct-15 03:00N 38°27' E 015°51'2 4.5
2017-Oct-15 02:30N 38°29' E 015°50'0 0.9
2017-Oct-15 02:01N 38°29' E 015°50'0 0.9
2017-Oct-15 01:30N 38°30' E 015°50'3 5.8
2017-Oct-15 01:01N 38°32' E 015°49'815.4
2017-Oct-15 00:30N 38°39' E 015°45'815.8
2017-Oct-15 00:00N 38°46' E 015°40'815.8
2017-Oct-14 23:30N 38°53' E 015°36'816.1
2017-Oct-14 23:00N 39°00' E 015°30'816.3
2017-Oct-14 22:30N 39°08' E 015°25'816.2
2017-Oct-14 21:59N 39°15' E 015°20'816.3
2017-Oct-14 21:30N 39°22' E 015°15'816.1
2017-Oct-14 21:00N 39°29' E 015°11'2016.3
2017-Oct-14 19:47N 39°47' E 014°60'616.4
2017-Oct-14 19:24N 39°53' E 014°56'35310.1
2017-Oct-13 08:34N 38°50' E 007°27'318.6
2017-Oct-13 08:24N 38°50' E 007°23'818.6
2017-Oct-13 07:57N 38°51' E 007°12'4718.3
2017-Oct-13 05:24N 38°53' E 006°12'718.1
2017-Oct-13 05:00N 38°53' E 006°03'1017.9
2017-Oct-13 04:26N 38°54' E 005°50'818.1
2017-Oct-13 04:00N 38°55' E 005°40'918.5
2017-Oct-13 03:30N 38°56' E 005°28'918.5
2017-Oct-13 02:59N 38°57' E 005°16'3718.6
2017-Oct-13 01:00N 38°58' E 004°28'918.5
2017-Oct-13 00:31N 38°59' E 004°17'1118.6
2017-Oct-12 23:56N 38°59' E 004°03'818.6
2017-Oct-12 23:30N 38°60' E 003°53'918.8
2017-Oct-12 23:00N 39°00' E 003°41'918.8
2017-Oct-12 22:30N 39°01' E 003°29'1018.8
2017-Oct-12 21:58N 39°01' E 003°16'918.8
2017-Oct-12 21:30N 39°02' E 003°04'918.6
2017-Oct-12 21:01N 39°03' E 002°53'918.4
2017-Oct-12 20:30N 39°04' E 002°41'918.3
2017-Oct-12 20:00N 39°06' E 002°29'4018.9
2017-Oct-12 17:52N 39°13' E 001°38'719.0
2017-Oct-12 17:30N 39°14' E 001°29'1819.0
2017-Oct-12 16:33N 39°17' E 001°06'118.7
2017-Oct-12 16:30N 39°17' E 001°05'42 2.6
2017-Oct-12 00:19N 38°48' E 000°27'616.0
2017-Oct-11 23:57N 38°43' E 000°31'1015.4
2017-Oct-11 23:17N 38°36' E 000°40'415.0
2017-Oct-11 23:00N 38°31' E 000°40'816.7
2017-Oct-11 22:30N 38°25' E 000°33'1616.4
2017-Oct-11 21:33N 38°13' E 000°20'116.1
2017-Oct-11 21:30N 38°13' E 000°19'816.0
2017-Oct-11 21:00N 38°07' E 000°12'816.0
2017-Oct-11 20:30N 38°01' E 000°05'815.8
2017-Oct-11 20:01N 37°56' W 000°02'815.7
2017-Oct-11 19:30N 37°50' W 000°09'815.8
2017-Oct-11 19:00N 37°44' W 000°16'815.6
2017-Oct-11 18:30N 37°39' W 000°23'815.7
2017-Oct-11 18:00N 37°34' W 000°30'816.1
2017-Oct-11 17:30N 37°28' W 000°38'917.2
2017-Oct-11 17:00N 37°23' W 000°46'30416.4
2017-Oct-10 22:30N 36°02' W 006°52'815.9
2017-Oct-10 22:00N 36°04' W 007°01'816.5
2017-Oct-10 21:30N 36°06' W 007°11'816.7
2017-Oct-10 21:00N 36°08' W 007°21'916.8
2017-Oct-10 20:30N 36°10' W 007°31'816.7
2017-Oct-10 20:00N 36°12' W 007°41'817.2
2017-Oct-10 19:30N 36°15' W 007°51'917.0
2017-Oct-10 19:00N 36°17' W 008°02'917.3
2017-Oct-10 18:31N 36°19' W 008°12'917.2
2017-Oct-10 18:00N 36°21' W 008°22'917.2
2017-Oct-10 17:30N 36°24' W 008°33'917.4
2017-Oct-10 17:00N 36°26' W 008°43'917.3
2017-Oct-10 16:30N 36°28' W 008°53'917.9
2017-Oct-10 16:01N 36°31' W 009°04'917.7
2017-Oct-10 15:31N 36°33' W 009°15'917.2
2017-Oct-10 15:00N 36°39' W 009°23'1717.2
2017-Oct-10 14:00N 36°54' W 009°35'918.2
2017-Oct-10 13:30N 37°02' W 009°37'918.1
2017-Oct-10 13:01N 37°11' W 009°40'918.5
2017-Oct-10 12:30N 37°20' W 009°43'918.5
2017-Oct-10 12:01N 37°29' W 009°45'918.5
2017-Oct-10 11:31N 37°38' W 009°46'918.0
2017-Oct-10 11:01N 37°47' W 009°48'918.1
2017-Oct-10 10:31N 37°56' W 009°51'918.5
2017-Oct-10 10:00N 38°05' W 009°53'918.2
2017-Oct-10 09:30N 38°14' W 009°56'917.9
2017-Oct-10 09:00N 38°22' W 009°59'918.2
2017-Oct-10 08:31N 38°31' W 010°02'918.3
2017-Oct-10 08:00N 38°40' W 010°05'917.9
2017-Oct-10 07:30N 38°49' W 010°05'918.7
2017-Oct-10 07:01N 38°58' W 010°05'918.2
2017-Oct-10 06:30N 39°08' W 010°05'918.5
2017-Oct-10 06:01N 39°17' W 010°05'918.4
2017-Oct-10 05:30N 39°26' W 010°05'918.0
2017-Oct-10 05:01N 39°35' W 010°06'918.4
2017-Oct-10 04:30N 39°44' W 010°07'918.3
2017-Oct-10 03:59N 39°54' W 010°07'918.4
2017-Oct-10 03:30N 40°03' W 010°07'918.2
2017-Oct-10 03:01N 40°12' W 010°08'917.9
2017-Oct-10 02:31N 40°21' W 010°08'918.3
2017-Oct-10 02:01N 40°30' W 010°08'1018.9
2017-Oct-10 01:30N 40°39' W 010°07'918.7
2017-Oct-10 01:00N 40°48' W 010°07'918.5
2017-Oct-10 00:30N 40°58' W 010°07'1019.0
2017-Oct-09 23:59N 41°08' W 010°07'1518.7
2017-Oct-09 23:11N 41°23' W 010°07'518.8
2017-Oct-09 22:55N 41°27' W 010°07'819.1
2017-Oct-09 22:30N 41°36' W 010°08'1218.8
2017-Oct-09 21:51N 41°48' W 010°08'36518.0
2017-Oct-09 01:35N 47°27' W 007°01'10018.9
2017-Oct-08 20:18N 48°54' W 005°47'1017.2
2017-Oct-08 19:42N 49°00' W 005°35'5216.2
2017-Oct-08 16:32N 49°26' W 004°26'116.9
2017-Oct-08 16:29N 49°26' W 004°25'1017.3
2017-Oct-08 15:56N 49°31' W 004°12'818.1
2017-Oct-08 15:29N 49°35' W 004°02'918.8
2017-Oct-08 15:01N 49°39' W 003°50'1019.6
2017-Oct-08 14:31N 49°44' W 003°37'1020.0
2017-Oct-08 14:01N 49°49' W 003°23'1020.1
2017-Oct-08 13:31N 49°54' W 003°10'1019.6
2017-Oct-08 13:00N 49°59' W 002°56'1019.0
2017-Oct-08 12:31N 50°01' W 002°42'5515.8
2017-Oct-08 09:02N 50°24' W 001°24'114.9
2017-Oct-08 09:00N 50°25' W 001°23'714.7
2017-Oct-08 08:30N 50°28' W 001°13'714.7
2017-Oct-08 08:00N 50°32' W 001°03'714.9
2017-Oct-08 07:30N 50°39' W 000°58'611.4
2017-Oct-08 07:00N 50°44' W 001°03'917.7
2017-Oct-08 06:30N 50°46' W 001°16'510.2
2017-Oct-08 06:00N 50°51' W 001°20'4 8.4
2017-Oct-08 05:30N 50°54' W 001°25'0 0.3
2017-Oct-08 04:54N 50°54' W 001°25'0 0.0
2017-Oct-08 04:27N 50°54' W 001°25'0 0.0
2017-Oct-08 03:57N 50°54' W 001°25'0 0.0
2017-Oct-08 03:27N 50°54' W 001°25'0 0.0
2017-Oct-08 02:57N 50°54' W 001°25'0 0.0
2017-Oct-08 02:30N 50°54' W 001°25'0 0.0
2017-Oct-08 01:57N 50°54' W 001°25'0 0.0
2017-Oct-08 01:30N 50°54' W 001°25'0 0.0
2017-Oct-08 01:00N 50°54' W 001°25'0 0.0
2017-Oct-08 00:27N 50°54' W 001°25'0 0.0
2017-Oct-07 23:57N 50°54' W 001°25'0 0.0
2017-Oct-07 23:30N 50°54' W 001°25'0 0.0
2017-Oct-07 23:00N 50°54' W 001°25'0 0.0
2017-Oct-07 22:21N 50°54' W 001°25'0 0.0
2017-Oct-07 21:48N 50°54' W 001°25'0 0.0
2017-Oct-07 21:27N 50°54' W 001°25'0 0.0
2017-Oct-07 20:45N 50°54' W 001°25'0 0.0
2017-Oct-07 19:51N 50°54' W 001°25'0 0.0
2017-Oct-07 18:09N 50°54' W 001°25'0 0.0
2017-Oct-07 17:39N 50°54' W 001°25'0 0.0
2017-Oct-07 17:27N 50°54' W 001°25'0 0.0
2017-Oct-07 16:51N 50°54' W 001°25'0 0.0
2017-Oct-07 16:21N 50°54' W 001°25'0 0.0
2017-Oct-07 16:00N 50°54' W 001°25'0 0.0
2017-Oct-07 15:30N 50°54' W 001°25'2 3.2
2017-Oct-07 15:00N 50°53' W 001°24'510.6
2017-Oct-07 14:31N 50°49' W 001°18'612.6
2017-Oct-07 14:00N 50°46' W 001°09'917.5
2017-Oct-07 13:31N 50°41' W 000°58'1 2.1
2017-Oct-07 13:00N 50°41' W 000°56'3 5.5
2017-Oct-07 12:30N 50°39' W 000°53'917.2
2017-Oct-07 12:01N 50°37' W 000°39'816.7
2017-Oct-07 11:31N 50°35' W 000°27'815.7
2017-Oct-07 11:01N 50°33' W 000°15'815.0
2017-Oct-07 10:30N 50°31' W 000°03'714.3
2017-Oct-07 10:01N 50°32' E 000°08'  

Dump ship's entire track history